Time;durP1;ratioP1;P1;durP2;ratioP2;P2;SDS_P1;SDS_P2;PMS_P1;PMS_P2;Temp;Humidity;BMP_temperature;BMP_pressure;BME280_temperature;BME280_humidity;BME280_pressure;Samples;Min_cycle;Max_cycle;Signal;HPM_P1;HPM_P2
2023/08/09 00:00:37;;;;;;;4.78;1.73;;;;;;;15.48;67.59;92640.88;4791100;29;20035;-83
2023/08/09 00:03:03;;;;;;;3.63;1.80;;;;;;;15.49;69.09;92635.28;4789675;30;20056;-84
2023/08/09 00:05:28;;;;;;;3.53;1.60;;;;;;;15.47;70.20;92620.84;4791647;29;20046;-84
2023/08/09 00:07:54;;;;;;;3.15;1.58;;;;;;;15.41;70.67;92630.78;4791153;29;20494;-84
2023/08/09 00:10:20;;;;;;;4.07;1.52;;;;;;;15.41;70.56;92636.84;4791405;30;20043;-83
2023/08/09 00:12:45;;;;;;;3.33;1.60;;;;;;;15.40;70.40;92627.38;4791473;29;20103;-84
2023/08/09 00:15:11;;;;;;;3.03;1.50;;;;;;;15.40;70.04;92621.31;4790279;30;20048;-84
2023/08/09 00:17:37;;;;;;;3.53;1.50;;;;;;;15.38;69.76;92626.16;4790148;29;20465;-84
2023/08/09 00:20:04;;;;;;;4.25;1.60;;;;;;;15.31;70.32;92631.09;4791901;29;20042;-83
2023/08/09 00:22:30;;;;;;;4.45;1.60;;;;;;;15.29;70.33;92636.69;4791785;29;20043;-84
2023/08/09 00:24:56;;;;;;;3.35;1.60;;;;;;;15.25;70.31;92635.75;4792375;29;20039;-83
2023/08/09 00:27:22;;;;;;;5.70;1.70;;;;;;;15.29;69.96;92644.63;4789595;30;20102;-84
2023/08/09 00:29:48;;;;;;;5.18;1.65;;;;;;;15.26;70.18;92631.25;4791589;29;20051;-84
2023/08/09 00:32:14;;;;;;;4.10;1.65;;;;;;;15.24;69.84;92634.19;4790260;30;20421;-83
2023/08/09 00:34:40;;;;;;;3.33;1.63;;;;;;;15.22;70.33;92623.22;4789785;30;20039;-84
2023/08/09 00:37:06;;;;;;;2.38;1.42;;;;;;;15.24;71.10;92636.06;4789981;29;20039;-84
2023/08/09 00:39:32;;;;;;;3.70;1.65;;;;;;;15.20;70.98;92634.06;4788843;29;20453;-84
2023/08/09 00:41:57;;;;;;;2.67;1.35;;;;;;;15.14;71.17;92634.53;4790999;30;20059;-84
2023/08/09 00:44:23;;;;;;;3.80;1.52;;;;;;;15.11;71.01;92633.28;4789833;29;20054;-83
2023/08/09 00:46:50;;;;;;;3.83;1.70;;;;;;;15.07;70.99;92628.94;4804397;29;20522;-84
2023/08/09 00:49:16;;;;;;;4.70;1.52;;;;;;;15.01;71.48;92624.91;4791666;29;20059;-84
2023/08/09 00:51:43;;;;;;;5.53;1.40;;;;;;;14.97;71.54;92628.16;4790206;30;20133;-84
2023/08/09 00:54:08;;;;;;;4.03;1.50;;;;;;;14.93;71.39;92629.09;4790825;30;20039;-84
2023/08/09 00:56:35;;;;;;;3.40;1.58;;;;;;;14.85;71.79;92614.03;4805790;29;20043;-84
2023/08/09 00:59:03;;;;;;;3.13;1.70;;;;;;;14.88;71.92;92616.06;4789900;30;20554;-84
2023/08/09 01:01:28;;;;;;;3.35;1.60;;;;;;;14.84;72.17;92617.75;4776121;30;20070;-84
2023/08/09 01:03:55;;;;;;;3.85;1.67;;;;;;;14.78;71.63;92623.19;4790500;30;20073;-83
2023/08/09 01:06:29;;;;;;;3.55;1.50;;;;;;;14.76;71.71;92627.22;4791021;29;20076;-83
2023/08/09 01:09:03;;;;;;;4.93;1.70;;;;;;;14.71;71.80;92630.00;4791516;29;20031;-83
2023/08/09 01:11:52;;;;;;;2.78;1.50;;;;;;;14.67;71.88;92636.97;4791384;30;20039;-84
2023/08/09 01:14:20;;;;;;;3.97;1.65;;;;;;;14.65;72.13;92642.53;4791563;29;20532;-84
2023/08/09 01:16:46;;;;;;;3.65;1.70;;;;;;;14.58;72.41;92639.56;4790106;29;20402;-83
2023/08/09 01:19:25;;;;;;;4.20;1.58;;;;;;;14.59;73.14;92641.13;4790134;29;20071;-84
2023/08/09 01:21:51;;;;;;;5.32;1.90;;;;;;;14.58;73.46;92652.75;4794026;29;20103;-83
2023/08/09 01:24:17;;;;;;;3.65;1.80;;;;;;;14.52;73.53;92648.66;4794989;29;20057;-84
2023/08/09 01:26:45;;;;;;;3.30;1.70;;;;;;;14.49;73.85;92650.06;4793327;29;20133;-82
2023/08/09 01:29:10;;;;;;;3.00;1.50;;;;;;;14.45;74.48;92654.38;4794973;29;20110;-83
2023/08/09 01:31:36;;;;;;;2.92;1.60;;;;;;;14.42;75.00;92648.94;4793915;29;20506;-81
2023/08/09 01:34:03;;;;;;;3.85;1.75;;;;;;;14.36;75.11;92659.63;4793940;29;20039;-84
2023/08/09 01:36:34;;;;;;;5.60;1.70;;;;;;;14.34;74.84;92653.09;4778025;30;20502;-84
2023/08/09 01:39:10;;;;;;;4.95;1.70;;;;;;;14.33;75.29;92670.75;4793842;30;20067;-83
2023/08/09 01:41:37;;;;;;;3.55;1.73;;;;;;;14.30;75.77;92671.38;4794208;30;20043;-83
2023/08/09 01:44:05;;;;;;;5.65;1.80;;;;;;;14.30;75.76;92666.09;4792364;30;20039;-83
2023/08/09 01:46:31;;;;;;;3.83;1.60;;;;;;;14.30;75.59;92658.22;4792892;29;20107;-83
2023/08/09 01:49:15;;;;;;;5.20;1.80;;;;;;;14.35;75.77;92658.06;4794770;29;20357;-84
2023/08/09 01:51:41;;;;;;;4.75;1.67;;;;;;;14.34;75.75;92661.00;4792879;30;20090;-83
2023/08/09 01:54:08;;;;;;;4.32;1.85;;;;;;;14.32;75.48;92658.69;4792827;30;20035;-83
2023/08/09 01:56:34;;;;;;;2.75;1.50;;;;;;;14.31;75.95;92654.47;4794718;29;20467;-83
2023/08/09 01:59:00;;;;;;;3.03;1.70;;;;;;;14.29;76.90;92654.00;4796880;30;20030;-83
2023/08/09 02:01:26;;;;;;;3.28;1.75;;;;;;;14.23;77.43;92652.63;4796171;30;20047;-84
2023/08/09 02:03:51;;;;;;;3.17;1.70;;;;;;;14.21;77.13;92652.13;4792352;30;20068;-84
2023/08/09 02:06:17;;;;;;;5.25;1.98;;;;;;;14.17;77.16;92648.56;4807434;29;20047;-83
2023/08/09 02:08:43;;;;;;;4.50;1.40;;;;;;;14.20;76.76;92641.91;4777087;30;20035;-84
2023/08/09 02:11:09;;;;;;;4.43;1.70;;;;;;;14.15;76.57;92629.66;4794092;29;20043;-83
2023/08/09 02:13:35;;;;;;;3.65;1.73;;;;;;;14.11;77.05;92629.47;4792335;30;20066;-83
2023/08/09 02:16:03;;;;;;;5.55;1.60;;;;;;;14.08;77.12;92626.69;4792000;29;20046;-83
2023/08/09 02:18:29;;;;;;;4.97;1.85;;;;;;;14.03;77.15;92624.19;4793351;29;20036;-83
2023/08/09 02:20:55;;;;;;;4.00;1.70;;;;;;;13.97;77.48;92620.13;4792633;30;20051;-84
2023/08/09 02:23:20;;;;;;;4.53;1.77;;;;;;;13.94;77.58;92619.66;4777966;30;20453;-82
2023/08/09 02:25:46;;;;;;;3.92;1.58;;;;;;;13.94;77.95;92616.25;4778963;30;20047;-84
2023/08/09 02:28:12;;;;;;;3.50;1.70;;;;;;;13.94;78.63;92611.00;4792624;29;20088;-84
2023/08/09 02:30:38;;;;;;;3.00;1.50;;;;;;;13.89;79.05;92606.66;4792787;29;20039;-83
2023/08/09 02:33:03;;;;;;;4.22;1.40;;;;;;;13.92;78.88;92615.78;4790916;29;20038;-83
2023/08/09 02:35:46;;;;;;;2.72;1.60;;;;;;;13.87;78.53;92621.97;4793839;30;20508;-81
2023/08/09 02:38:11;;;;;;;;;;;;;;;13.85;78.82;92618.09;4793182;29;20047;-83
2023/08/09 02:40:37;;;;;;;3.28;1.65;;;;;;;13.81;78.72;92612.63;4791509;30;19917;-84
2023/08/09 02:43:03;;;;;;;5.03;1.70;;;;;;;13.80;78.93;92610.28;4791867;30;20027;-83
2023/08/09 02:45:28;;;;;;;3.10;1.70;;;;;;;13.78;79.52;92607.19;4786679;30;20027;-82
2023/08/09 02:47:54;;;;;;;3.28;1.60;;;;;;;13.76;79.67;92610.13;4792932;29;20047;-82
2023/08/09 02:50:20;;;;;;;6.10;1.60;;;;;;;13.75;80.07;92608.56;4792460;29;20039;-83
2023/08/09 02:52:45;;;;;;;3.60;1.80;;;;;;;13.68;80.29;92609.00;4792742;29;20092;-83
2023/08/09 02:55:13;;;;;;;3.50;1.58;;;;;;;13.64;80.08;92609.91;4792502;30;20035;-83
2023/08/09 02:57:38;;;;;;;6.72;1.70;;;;;;;13.60;80.22;92616.84;4792314;29;20078;-83
2023/08/09 03:00:06;;;;;;;4.07;1.75;;;;;;;13.59;80.25;92610.03;4806572;29;20040;-84
2023/08/09 03:02:32;;;;;;;4.70;1.85;;;;;;;13.53;81.11;92604.91;4805578;29;20799;-84
2023/08/09 03:05:00;;;;;;;5.03;1.60;;;;;;;13.52;81.64;92600.72;4791671;30;20039;-83
2023/08/09 03:07:25;;;;;;;4.00;2.00;;;;;;;13.50;81.27;92596.84;4792343;29;20043;-84
2023/08/09 03:09:51;;;;;;;7.63;1.80;;;;;;;13.49;81.79;92601.34;4793039;29;20235;-83
2023/08/09 03:12:17;;;;;;;2.88;1.33;;;;;;;13.49;82.23;92608.44;4806826;29;20059;-83
2023/08/09 03:14:42;;;;;;;4.15;1.65;;;;;;;13.50;82.15;92605.50;4791357;29;20143;-83
2023/08/09 03:17:08;;;;;;;3.25;1.70;;;;;;;13.53;81.23;92602.28;4792211;30;20054;-84
2023/08/09 03:19:33;;;;;;;3.67;1.70;;;;;;;13.57;80.94;92609.56;4792460;29;20042;-83
2023/08/09 03:21:59;;;;;;;4.28;1.70;;;;;;;13.58;81.80;92613.72;4791461;30;20051;-83
2023/08/09 03:24:26;;;;;;;3.60;1.75;;;;;;;13.60;81.53;92614.22;4776909;30;20057;-84
2023/08/09 03:26:52;;;;;;;4.45;1.70;;;;;;;13.60;82.17;92611.59;4792099;29;20047;-83
2023/08/09 03:29:18;;;;;;;4.38;2.00;;;;;;;13.61;82.24;92621.03;4790838;30;20031;-83
2023/08/09 03:31:45;;;;;;;3.65;1.65;;;;;;;13.59;82.03;92612.66;4776103;30;20051;-83
2023/08/09 03:34:12;;;;;;;3.83;1.60;;;;;;;13.53;82.93;92612.81;4776899;30;20523;-83
2023/08/09 03:36:38;;;;;;;3.60;1.60;;;;;;;13.53;81.62;92623.31;4791260;29;20049;-83
2023/08/09 03:39:04;;;;;;;4.70;1.70;;;;;;;13.54;82.17;92638.00;4790520;30;20039;-82
2023/08/09 03:41:30;;;;;;;3.75;1.65;;;;;;;13.54;82.13;92634.63;4790545;30;20043;-83
2023/08/09 03:43:55;;;;;;;3.05;1.52;;;;;;;13.55;82.16;92641.41;4789751;29;20058;-83
2023/08/09 03:46:21;;;;;;;5.45;1.65;;;;;;;13.61;82.35;92650.75;4792286;29;20043;-84
2023/08/09 03:48:47;;;;;;;4.93;1.58;;;;;;;13.59;81.84;92646.88;4790154;30;20032;-83
2023/08/09 03:51:12;;;;;;;3.20;1.70;;;;;;;13.63;82.93;92658.34;4776733;30;20127;-83
2023/08/09 03:53:38;;;;;;;4.03;1.60;;;;;;;13.60;82.90;92664.19;4791184;30;20039;-83
2023/08/09 03:56:04;;;;;;;2.97;1.60;;;;;;;13.59;82.92;92665.28;4790477;29;20054;-83
2023/08/09 03:58:30;;;;;;;3.42;1.80;;;;;;;13.56;83.34;92656.13;4775372;30;20487;-83
2023/08/09 04:00:56;;;;;;;4.40;1.55;;;;;;;13.53;83.58;92651.44;4791260;29;20058;-83
2023/08/09 04:03:21;;;;;;;4.40;1.70;;;;;;;13.52;82.71;92653.31;4791588;30;20070;-83
2023/08/09 04:05:47;;;;;;;3.25;1.60;;;;;;;13.54;83.02;92647.75;4790126;30;20103;-82
2023/08/09 04:08:13;;;;;;;3.80;1.42;;;;;;;13.61;82.97;92655.22;4791078;29;20082;-82
2023/08/09 04:10:39;;;;;;;3.78;1.50;;;;;;;13.61;82.90;92655.22;4791146;29;20429;-83
2023/08/09 04:13:05;;;;;;;3.75;1.60;;;;;;;13.58;82.68;92648.72;4805237;29;20636;-83
2023/08/09 04:15:30;;;;;;;5.07;1.98;;;;;;;13.59;83.94;92646.88;4790575;29;20113;-83
2023/08/09 04:17:56;;;;;;;3.83;1.70;;;;;;;13.57;83.98;92655.03;4791350;29;20032;-83
2023/08/09 04:20:22;;;;;;;7.97;1.70;;;;;;;13.55;84.04;92657.19;4791339;30;20055;-83
2023/08/09 04:22:48;;;;;;;3.53;1.77;;;;;;;13.56;85.02;92660.63;4791359;29;20062;-83
2023/08/09 04:25:13;;;;;;;3.50;1.80;;;;;;;13.57;84.84;92659.53;4791413;29;20047;-83
2023/08/09 04:27:40;;;;;;;4.50;1.65;;;;;;;13.58;84.61;92663.72;4791391;29;20035;-83
2023/08/09 04:30:09;;;;;;;6.25;1.90;;;;;;;13.59;84.41;92660.00;4791272;29;20112;-83
2023/08/09 04:32:37;;;;;;;3.55;1.70;;;;;;;13.61;85.02;92656.00;4790346;29;20046;-83
2023/08/09 04:35:04;;;;;;;3.28;1.50;;;;;;;13.61;85.60;92661.25;4790021;30;20107;-82
2023/08/09 04:37:30;;;;;;;3.35;1.63;;;;;;;13.65;86.44;92661.44;4790759;29;20448;-83
2023/08/09 04:39:56;;;;;;;3.20;1.55;;;;;;;13.64;86.08;92659.88;4774180;30;20052;-83
2023/08/09 04:42:21;;;;;;;3.05;1.38;;;;;;;13.65;85.62;92666.72;4788151;29;20054;-84
2023/08/09 04:44:48;;;;;;;2.97;1.67;;;;;;;13.68;85.61;92664.25;4788250;29;20044;-83
2023/08/09 04:47:14;;;;;;;3.28;1.60;;;;;;;13.69;86.31;92657.13;4786228;29;20070;-82
2023/08/09 04:49:40;;;;;;;4.40;1.70;;;;;;;13.70;85.94;92666.59;4789171;30;20071;-85
2023/08/09 04:52:06;;;;;;;3.22;1.60;;;;;;;13.75;85.60;92663.81;4790501;29;20069;-85
2023/08/09 04:54:32;;;;;;;4.10;1.70;;;;;;;13.77;85.95;92664.31;4792233;29;20055;-84
2023/08/09 04:56:57;;;;;;;2.75;1.60;;;;;;;13.79;85.53;92662.16;4794325;29;20042;-82
2023/08/09 04:59:23;;;;;;;4.75;1.80;;;;;;;13.83;85.48;92657.84;4794053;30;20184;-84
2023/08/09 05:01:49;;;;;;;3.53;1.70;;;;;;;13.87;85.04;92663.25;4788803;30;20035;-83
2023/08/09 05:04:15;;;;;;;3.00;1.58;;;;;;;13.91;85.19;92659.72;4805545;29;20133;-83
2023/08/09 05:06:40;;;;;;;3.28;1.70;;;;;;;13.98;85.60;92663.78;4792963;29;20027;-83
2023/08/09 05:09:06;;;;;;;4.00;1.55;;;;;;;14.02;85.85;92665.50;4791257;30;20043;-83
2023/08/09 05:11:31;;;;;;;2.75;1.60;;;;;;;14.05;85.42;92667.56;4791832;30;20119;-82
2023/08/09 05:13:58;;;;;;;3.58;1.73;;;;;;;14.06;86.80;92655.16;4793494;30;20062;-81
2023/08/09 05:16:26;;;;;;;4.07;1.60;;;;;;;14.17;86.51;92661.72;4793771;29;20051;-83
2023/08/09 05:18:52;;;;;;;3.80;1.70;;;;;;;14.26;86.46;92675.69;4793626;30;20055;-83
2023/08/09 05:21:19;;;;;;;3.08;1.60;;;;;;;14.32;85.67;92669.22;4791988;29;21969;-82
2023/08/09 05:23:45;;;;;;;4.38;1.75;;;;;;;14.40;85.49;92664.28;4793706;29;20023;-82
2023/08/09 05:26:10;;;;;;;4.60;1.80;;;;;;;14.54;85.81;92673.63;4792719;29;20042;-83
2023/08/09 05:28:36;;;;;;;6.10;2.05;;;;;;;14.67;85.42;92671.97;4794044;29;20046;-83
2023/08/09 05:31:01;;;;;;;6.35;1.60;;;;;;;14.82;85.52;92670.00;4793209;29;20039;-83
2023/08/09 05:33:27;;;;;;;5.00;1.80;;;;;;;14.93;85.20;92676.53;4793302;29;20525;-83
2023/08/09 05:35:53;;;;;;;4.95;2.20;;;;;;;15.01;85.82;92670.50;4793361;29;20027;-83
2023/08/09 05:38:18;;;;;;;4.53;1.60;;;;;;;15.08;84.84;92667.41;4792797;30;20066;-82
2023/08/09 05:40:44;;;;;;;3.67;1.70;;;;;;;15.17;83.73;92674.22;4792881;29;20031;-82
2023/08/09 05:43:09;;;;;;;4.82;2.10;;;;;;;15.23;84.56;92669.59;4793845;29;20081;-81
2023/08/09 05:45:35;;;;;;;3.78;1.67;;;;;;;15.28;84.62;92666.78;4794520;29;20031;-82
2023/08/09 05:48:00;;;;;;;4.20;1.63;;;;;;;15.25;84.94;92656.09;4793851;29;20039;-82
2023/08/09 05:50:26;;;;;;;3.67;1.90;;;;;;;15.36;84.30;92675.78;4807174;29;20046;-83
2023/08/09 05:52:52;;;;;;;3.50;1.60;;;;;;;15.44;85.20;92682.16;4792208;30;20494;-82
2023/08/09 05:55:17;;;;;;;3.28;1.70;;;;;;;15.49;86.89;92674.88;4793422;29;20042;-82
2023/08/09 05:57:43;;;;;;;3.13;1.60;;;;;;;15.56;86.74;92680.44;4792971;29;20054;-82
2023/08/09 06:00:15;;;;;;;5.88;1.73;;;;;;;15.68;89.89;92679.03;4793286;29;20073;-82
2023/08/09 06:02:43;;;;;;;8.85;2.10;;;;;;;15.82;95.11;92674.38;4793486;29;20039;-83
2023/08/09 06:05:09;;;;;;;5.28;1.98;;;;;;;15.93;94.86;92665.03;4794113;29;20413;-81
2023/08/09 06:07:35;;;;;;;5.18;1.75;;;;;;;16.15;93.60;92668.56;4792629;29;20118;-83
2023/08/09 06:10:00;;;;;;;4.45;2.00;;;;;;;16.33;92.20;92670.03;4801730;29;20226;-83
2023/08/09 06:12:26;;;;;;;6.28;1.90;;;;;;;16.89;88.54;92663.88;4792876;29;20086;-83
2023/08/09 06:14:51;;;;;;;3.15;1.70;;;;;;;17.79;81.28;92665.25;4793386;30;20050;-83
2023/08/09 06:17:17;;;;;;;3.05;1.50;;;;;;;18.16;70.55;92670.66;4792670;29;20088;-83
2023/08/09 06:19:42;;;;;;;4.45;1.50;;;;;;;18.17;69.71;92680.13;4792928;29;20035;-83
2023/08/09 06:22:09;;;;;;;5.38;1.60;;;;;;;18.33;68.41;92677.63;4792970;30;20043;-83
2023/08/09 06:24:35;;;;;;;7.60;1.70;;;;;;;18.30;69.51;92679.81;4792405;29;20499;-83
2023/08/09 06:27:00;;;;;;;4.28;1.83;;;;;;;18.33;76.08;92694.31;4793427;29;20070;-83
2023/08/09 06:29:27;;;;;;;3.83;1.88;;;;;;;18.52;74.44;92699.84;4792838;29;20043;-83
2023/08/09 06:31:53;;;;;;;3.40;1.60;;;;;;;18.75;73.25;92699.41;4792727;29;20051;-83
2023/08/09 06:34:19;;;;;;;3.38;1.58;;;;;;;19.11;72.85;92696.00;4791549;30;20027;-83
2023/08/09 06:36:45;;;;;;;4.38;1.65;;;;;;;19.31;70.82;92699.63;4793629;29;20047;-83
2023/08/09 06:39:10;;;;;;;4.35;1.70;;;;;;;19.73;68.51;92704.63;4792776;29;20379;-83
2023/08/09 06:41:36;;;;;;;3.17;1.80;;;;;;;20.49;64.11;92702.06;4794062;29;20042;-82
2023/08/09 06:44:03;;;;;;;7.10;1.67;;;;;;;21.20;60.94;92692.31;4794689;29;20047;-84
2023/08/09 06:46:29;;;;;;;5.55;1.80;;;;;;;22.23;57.29;92697.47;4793727;29;20396;-83
2023/08/09 06:49:01;;;;;;;7.55;1.73;;;;;;;23.14;49.70;92705.84;4794092;29;20078;-84
2023/08/09 06:51:35;;;;;;;5.07;1.80;;;;;;;23.34;50.09;92707.28;4796021;29;20043;-84
2023/08/09 06:54:03;;;;;;;3.90;1.67;;;;;;;22.78;53.54;92705.25;4795117;29;20055;-84
2023/08/09 06:56:33;;;;;;;5.25;2.00;;;;;;;22.25;57.64;92700.56;4794819;29;20035;-82
2023/08/09 06:59:04;;;;;;;4.82;2.05;;;;;;;22.07;61.21;92708.19;4794825;29;20081;-84
2023/08/09 07:01:31;;;;;;;6.30;1.85;;;;;;;21.76;60.50;92711.78;4793709;29;20051;-83
2023/08/09 07:03:57;;;;;;;6.03;1.90;;;;;;;21.00;64.15;92715.44;4793426;29;20055;-84
2023/08/09 07:06:27;;;;;;;5.30;2.08;;;;;;;20.55;63.71;92708.66;4776865;30;20402;-83
2023/08/09 07:08:54;;;;;;;3.70;1.70;;;;;;;20.45;62.18;92719.81;4793734;30;20039;-83
2023/08/09 07:11:22;;;;;;;4.57;1.70;;;;;;;20.06;57.74;92716.13;4792717;30;20042;-83
2023/08/09 07:13:48;;;;;;;3.30;1.60;;;;;;;20.38;56.52;92724.94;4756800;30;20044;-84
2023/08/09 07:16:13;;;;;;;8.82;1.90;;;;;;;20.54;61.89;92715.09;4756952;30;20048;-83
2023/08/09 07:18:40;;;;;;;5.75;1.70;;;;;;;20.64;59.27;92719.16;4757131;30;20048;-84
2023/08/09 07:21:06;;;;;;;4.60;1.80;;;;;;;20.81;60.20;92723.38;4756403;30;20043;-82
2023/08/09 07:23:32;;;;;;;3.97;1.90;;;;;;;20.73;56.89;92716.34;4754471;30;20048;-83
2023/08/09 07:25:57;;;;;;;6.40;1.90;;;;;;;20.51;59.87;92709.69;4756456;30;20043;-83
2023/08/09 07:28:25;;;;;;;6.90;2.00;;;;;;;20.64;63.52;92715.72;4757210;30;20080;-85
2023/08/09 07:30:52;;;;;;;6.20;1.92;;;;;;;20.83;62.52;92723.00;4756414;30;20093;-83
2023/08/09 07:33:20;;;;;;;3.90;1.90;;;;;;;20.71;63.63;92718.56;4755459;30;20523;-83
2023/08/09 07:35:45;;;;;;;5.50;1.90;;;;;;;20.89;63.81;92714.44;4756380;30;20384;-83
2023/08/09 07:38:11;;;;;;;4.80;2.05;;;;;;;20.69;68.53;92715.47;4755491;30;20127;-82
2023/08/09 07:40:37;;;;;;;4.20;1.95;;;;;;;20.50;69.18;92719.56;4747957;30;20478;-83
2023/08/09 07:43:03;;;;;;;5.28;2.10;;;;;;;20.24;72.93;92719.25;4750164;30;20072;-82
2023/08/09 07:45:29;;;;;;;6.32;1.92;;;;;;;20.52;71.99;92722.66;4754838;30;20032;-82
2023/08/09 07:47:55;;;;;;;3.78;1.83;;;;;;;20.99;66.49;92721.13;4755398;30;20381;-83
2023/08/09 07:50:21;;;;;;;6.82;2.08;;;;;;;21.33;61.07;92722.28;4754726;30;20039;-83
2023/08/09 07:52:47;;;;;;;3.50;1.80;;;;;;;21.29;58.25;92726.75;4755808;30;20265;-83
2023/08/09 07:55:13;;;;;;;4.05;1.95;;;;;;;21.52;61.76;92721.56;4755595;30;20046;-82
2023/08/09 07:57:39;;;;;;;3.58;1.70;;;;;;;21.73;59.53;92723.13;4754563;30;20559;-83
2023/08/09 08:00:12;;;;;;;4.53;2.00;;;;;;;21.50;62.06;92723.78;4755211;30;20042;-83
2023/08/09 08:02:41;;;;;;;4.10;1.77;;;;;;;21.32;66.23;92726.06;4755100;30;20056;-83
2023/08/09 08:05:08;;;;;;;9.77;2.10;;;;;;;21.15;63.53;92721.13;4756493;30;20032;-82
2023/08/09 08:07:33;;;;;;;4.97;2.10;;;;;;;21.19;65.42;92719.31;4755941;30;20040;-82
2023/08/09 08:09:59;;;;;;;6.55;1.80;;;;;;;21.18;64.42;92718.50;4759148;30;20029;-82
2023/08/09 08:12:26;;;;;;;4.22;1.80;;;;;;;21.26;64.57;92713.38;4771502;30;20130;-83
2023/08/09 08:14:52;;;;;;;6.10;1.80;;;;;;;21.63;60.68;92714.56;4792058;29;20558;-83
2023/08/09 08:17:18;;;;;;;5.05;2.60;;;;;;;21.55;59.72;92704.91;4789678;29;20078;-83
2023/08/09 08:19:44;;;;;;;6.07;1.80;;;;;;;21.52;60.22;92720.78;4790498;30;20433;-82
2023/08/09 08:22:10;;;;;;;4.22;1.70;;;;;;;21.53;57.46;92714.38;4790401;29;20047;-83
2023/08/09 08:24:35;;;;;;;3.25;1.60;;;;;;;21.80;59.20;92717.97;4790350;29;20483;-82
2023/08/09 08:27:01;;;;;;;5.55;1.75;;;;;;;21.73;58.65;92723.13;4789966;29;20071;-81
2023/08/09 08:29:27;;;;;;;4.05;1.70;;;;;;;21.66;60.75;92715.00;4789394;29;20031;-83
2023/08/09 08:31:53;;;;;;;6.00;2.10;;;;;;;21.53;61.28;92722.34;4794142;29;20554;-82
2023/08/09 08:34:21;;;;;;;6.35;2.00;;;;;;;21.50;61.42;92715.03;4795836;29;20042;-81
2023/08/09 08:36:47;;;;;;;6.72;2.47;;;;;;;21.30;60.92;92725.63;4812021;29;20054;-83
2023/08/09 08:39:14;;;;;;;7.15;2.25;;;;;;;20.97;60.24;92724.13;4812738;29;20558;-83
2023/08/09 08:41:41;;;;;;;4.32;1.98;;;;;;;21.23;62.75;92717.47;4794528;29;20498;-82
2023/08/09 08:44:08;;;;;;;7.05;2.00;;;;;;;21.32;56.50;92722.63;4794044;29;20035;-82
2023/08/09 08:46:33;;;;;;;8.00;2.42;;;;;;;21.37;60.72;92727.69;4794103;29;20096;-83
2023/08/09 08:49:03;;;;;;;4.13;2.20;;;;;;;21.11;59.72;92725.56;4794365;29;20019;-82
2023/08/09 08:51:29;;;;;;;6.18;1.80;;;;;;;21.15;59.48;92727.19;4793366;29;20554;-83
2023/08/09 08:53:57;;;;;;;4.68;1.90;;;;;;;21.29;57.05;92732.06;4793654;29;20119;-84
2023/08/09 08:56:22;;;;;;;3.72;1.75;;;;;;;21.54;51.15;92723.88;4779208;30;20339;-83
2023/08/09 08:58:49;;;;;;;4.85;1.70;;;;;;;21.81;54.02;92720.25;4790966;29;20444;-83
2023/08/09 09:01:15;;;;;;;4.10;1.77;;;;;;;21.90;55.56;92721.94;4808172;29;20047;-82
2023/08/09 09:03:40;;;;;;;5.85;2.50;;;;;;;21.63;59.43;92719.13;4807642;29;20043;-83
2023/08/09 09:06:06;;;;;;;5.47;2.30;;;;;;;21.33;58.01;92721.50;4794248;29;20040;-81
2023/08/09 09:08:40;;;;;;;5.13;2.00;;;;;;;21.51;57.11;92727.25;4793878;29;20031;-82
2023/08/09 09:11:18;;;;;;;5.40;2.10;;;;;;;21.56;58.03;92722.41;4794217;29;20043;-82
2023/08/09 09:13:47;;;;;;;5.47;2.17;;;;;;;21.76;55.89;92717.88;4793674;29;20063;-82
2023/08/09 09:16:14;;;;;;;5.78;1.70;;;;;;;21.71;53.90;92720.06;4794639;29;20054;-82
2023/08/09 09:18:42;;;;;;;8.23;2.15;;;;;;;21.91;54.28;92718.16;4793577;30;20499;-83
2023/08/09 09:21:11;;;;;;;3.80;1.88;;;;;;;21.95;55.03;92724.31;4792716;30;20070;-82
2023/08/09 09:23:38;;;;;;;6.80;1.75;;;;;;;21.73;54.35;92723.91;4791840;30;20059;-83
2023/08/09 09:26:08;;;;;;;7.35;1.83;;;;;;;21.61;52.89;92726.69;4794012;29;20042;-83
2023/08/09 09:28:44;;;;;;;5.97;2.22;;;;;;;21.46;51.84;92730.16;4794414;29;20035;-83
2023/08/09 09:31:13;;;;;;;3.85;1.80;;;;;;;21.62;49.89;92728.25;4793971;29;20039;-83
2023/08/09 09:33:39;;;;;;;4.40;1.70;;;;;;;21.59;49.41;92723.59;4794275;29;20079;-83
2023/08/09 09:36:10;;;;;;;4.43;1.75;;;;;;;21.76;50.65;92733.09;4793720;29;20411;-83
2023/08/09 09:38:36;;;;;;;3.10;1.50;;;;;;;21.92;53.78;92720.47;4793218;29;20137;-83
2023/08/09 09:41:03;;;;;;;2.85;1.48;;;;;;;21.92;52.58;92719.72;4792940;29;20043;-82
2023/08/09 09:43:32;;;;;;;5.22;1.90;;;;;;;21.60;55.46;92714.50;4793577;29;20041;-83
2023/08/09 09:45:58;;;;;;;6.60;1.77;;;;;;;21.50;54.88;92720.38;4793405;29;20119;-83
2023/08/09 09:48:25;;;;;;;3.97;1.70;;;;;;;22.00;53.87;92716.06;4792174;30;20489;-83
2023/08/09 09:50:51;;;;;;;2.95;1.58;;;;;;;21.99;53.91;92715.28;4793079;29;20520;-83
2023/08/09 09:53:18;;;;;;;3.40;1.67;;;;;;;22.21;53.13;92715.69;4793291;29;20042;-83
2023/08/09 09:55:45;;;;;;;5.50;1.80;;;;;;;22.12;53.12;92715.13;4791753;30;20035;-83
2023/08/09 09:58:12;;;;;;;4.53;2.10;;;;;;;22.13;53.56;92704.09;4793010;29;20110;-83
2023/08/09 10:00:43;;;;;;;5.03;1.90;;;;;;;22.18;51.91;92703.84;4792323;30;20035;-83
2023/08/09 10:03:09;;;;;;;5.70;1.90;;;;;;;22.27;53.86;92697.53;4792357;29;20035;-82
2023/08/09 10:05:40;;;;;;;6.95;1.95;;;;;;;22.62;54.53;92695.47;4793165;29;20143;-83
2023/08/09 10:08:09;;;;;;;4.63;1.90;;;;;;;22.95;53.69;92688.75;4793734;29;20035;-83
2023/08/09 10:10:37;;;;;;;3.80;1.80;;;;;;;23.06;51.15;92687.06;4792484;30;20038;-83
2023/08/09 10:13:05;;;;;;;5.03;2.03;;;;;;;22.96;50.85;92690.28;4793529;29;20055;-83
2023/08/09 10:15:44;;;;;;;4.75;1.90;;;;;;;23.36;50.13;92696.25;4793330;30;20043;-82
2023/08/09 10:18:16;;;;;;;11.02;2.00;;;;;;;23.53;49.89;92684.22;4792596;29;20081;-83
2023/08/09 10:20:46;;;;;;;6.45;1.95;;;;;;;23.28;50.11;92684.66;4792786;29;20043;-83
2023/08/09 10:23:26;;;;;;;5.78;2.08;;;;;;;22.90;47.83;92674.94;4791677;30;20043;-84
2023/08/09 10:25:53;;;;;;;4.07;1.67;;;;;;;22.86;48.42;92688.25;4773511;30;20051;-83
2023/08/09 10:28:40;;;;;;;4.95;2.15;;;;;;;22.84;49.19;92682.50;4788048;29;20189;-82
2023/08/09 10:31:06;;;;;;;4.63;1.58;;;;;;;22.69;51.29;92678.03;4788240;29;20048;-82
2023/08/09 10:33:32;;;;;;;5.78;1.90;;;;;;;22.86;50.62;92677.56;4774718;30;20494;-83
2023/08/09 10:35:58;;;;;;;4.22;1.83;;;;;;;22.56;49.37;92680.91;4790386;30;20039;-83
2023/08/09 10:38:32;;;;;;;8.30;1.98;;;;;;;22.50;48.88;92684.22;4791549;30;20059;-83
2023/08/09 10:41:07;;;;;;;4.25;1.77;;;;;;;22.45;50.51;92677.28;4792052;29;20039;-83
2023/08/09 10:43:33;;;;;;;4.35;2.00;;;;;;;22.53;50.21;92673.59;4792416;29;20043;-83
2023/08/09 10:46:20;;;;;;;5.65;1.70;;;;;;;22.62;50.57;92666.13;4791578;29;20397;-83
2023/08/09 10:48:53;;;;;;;5.78;1.90;;;;;;;22.61;49.11;92669.94;4791356;30;20035;-83
2023/08/09 10:51:22;;;;;;;8.13;1.90;;;;;;;22.80;49.26;92661.06;4792853;29;20037;-83
2023/08/09 10:53:57;;;;;;;6.90;1.92;;;;;;;23.02;49.49;92667.53;4791119;29;20070;-83
2023/08/09 10:56:35;;;;;;;4.10;1.90;;;;;;;23.39;50.25;92666.13;4792527;29;20103;-83
2023/08/09 10:59:13;;;;;;;8.57;1.90;;;;;;;23.68;49.63;92662.69;4787812;29;20048;-83
2023/08/09 11:01:42;;;;;;;5.75;1.90;;;;;;;23.63;49.87;92660.34;4791923;30;20057;-84
2023/08/09 11:04:17;;;;;;;4.32;1.90;;;;;;;23.83;48.41;92650.28;4793062;29;20096;-83
2023/08/09 11:07:01;;;;;;;4.05;1.75;;;;;;;23.48;48.29;92654.06;4793419;29;20092;-83
2023/08/09 11:13:01;;;;;;;3.90;1.92;;;;;;;24.03;48.86;92645.53;4793126;30;20084;-84
2023/08/09 11:15:28;;;;;;;5.65;1.95;;;;;;;23.63;48.91;92651.56;4792361;30;20043;-83
2023/08/09 11:17:54;;;;;;;5.07;1.90;;;;;;;23.42;49.33;92652.81;4792484;29;20035;-83
2023/08/09 11:20:25;;;;;;;6.03;1.85;;;;;;;23.28;48.45;92657.97;4793184;29;20126;-83
2023/08/09 11:22:56;;;;;;;7.75;2.03;;;;;;;23.46;51.24;92645.63;4792035;29;20063;-82
2023/08/09 11:25:24;;;;;;;3.28;1.58;;;;;;;23.31;50.08;92633.22;4792672;29;20064;-84
2023/08/09 11:28:12;;;;;;;2.83;1.50;;;;;;;23.13;50.52;92641.00;4792140;29;20031;-83
2023/08/09 11:30:52;;;;;;;3.42;1.70;;;;;;;23.12;50.52;92639.44;4786110;30;20046;-83
2023/08/09 11:33:19;;;;;;;8.55;1.70;;;;;;;23.33;50.08;92641.66;4792300;30;20130;-83
2023/08/09 11:35:47;;;;;;;4.25;1.90;;;;;;;23.33;51.79;92640.84;4792881;29;20035;-83
2023/08/09 11:38:16;;;;;;;4.55;1.90;;;;;;;23.27;51.17;92640.41;4792806;29;20100;-83